Time;durP1;ratioP1;P1;durP2;ratioP2;P2;SDS_P1;SDS_P2;PMS_P1;PMS_P2;Temp;Humidity;BMP_temperature;BMP_pressure;BME280_temperature;BME280_humidity;BME280_pressure;Samples;Min_cycle;Max_cycle;Signal;HPM_P1;HPM_P2
2023/01/14 00:01:00;;;;;;;3.20;2.05;;;16.20;60.40;;;;;;5061203;28;20574;-66
2023/01/14 00:03:27;;;;;;;2.05;1.65;;;16.30;60.40;;;;;;5061212;28;20221;-66
2023/01/14 00:05:58;;;;;;;1.55;1.40;;;16.40;60.20;;;;;;5061097;28;20101;-65
2023/01/14 00:08:25;;;;;;;2.17;1.60;;;16.50;60.00;;;;;;5061072;28;20455;-65
2023/01/14 00:10:50;;;;;;;1.98;1.50;;;16.60;59.80;;;;;;5061057;28;20224;-65
2023/01/14 00:13:16;;;;;;;1.88;1.52;;;16.60;59.70;;;;;;5060931;28;20089;-66
2023/01/14 00:15:54;;;;;;;1.95;1.40;;;16.60;59.50;;;;;;5060867;28;20305;-65
2023/01/14 00:18:20;;;;;;;1.90;1.50;;;16.60;59.40;;;;;;5060936;28;20352;-64
2023/01/14 00:21:06;;;;;;;2.15;1.70;;;16.50;59.50;;;;;;5060858;28;20044;-64
2023/01/14 00:23:34;;;;;;;1.75;1.58;;;16.50;59.50;;;;;;5060780;28;20017;-65
2023/01/14 00:26:11;;;;;;;3.08;1.80;;;16.40;59.60;;;;;;5060739;28;20055;-65
2023/01/14 00:28:37;;;;;;;3.85;1.80;;;16.40;59.60;;;;;;5060742;28;20036;-65
2023/01/14 00:31:08;;;;;;;2.05;1.80;;;16.30;59.70;;;;;;5060444;28;20225;-66
2023/01/14 00:33:35;;;;;;;2.40;1.50;;;16.30;59.70;;;;;;5060595;28;20052;-65
2023/01/14 00:36:01;;;;;;;2.30;1.55;;;16.30;59.70;;;;;;5060671;28;20027;-65
2023/01/14 00:38:27;;;;;;;3.83;1.45;;;16.30;59.80;;;;;;5060591;28;20025;-65
2023/01/14 00:41:05;;;;;;;2.13;1.33;;;16.20;59.70;;;;;;5060596;28;20095;-65
2023/01/14 00:43:31;;;;;;;1.90;1.70;;;16.20;59.80;;;;;;5060569;28;20308;-65
2023/01/14 00:45:57;;;;;;;2.22;1.60;;;16.20;59.80;;;;;;5060524;28;20032;-65
2023/01/14 00:48:22;;;;;;;1.95;1.63;;;16.10;59.90;;;;;;5060411;28;20209;-65
2023/01/14 00:50:48;;;;;;;2.67;1.65;;;16.20;59.90;;;;;;5060472;28;20025;-65
2023/01/14 00:53:14;;;;;;;1.52;1.40;;;16.10;59.90;;;;;;5060313;28;20388;-65
2023/01/14 00:55:40;;;;;;;2.30;1.75;;;16.10;59.90;;;;;;5060418;28;20029;-65
2023/01/14 00:58:05;;;;;;;1.85;1.50;;;16.10;60.00;;;;;;5060414;28;20378;-65
2023/01/14 01:00:31;;;;;;;2.38;1.58;;;16.10;60.00;;;;;;5060371;28;20025;-65
2023/01/14 01:02:57;;;;;;;2.42;1.80;;;16.10;60.20;;;;;;5060368;28;20092;-65
2023/01/14 01:05:23;;;;;;;2.95;1.45;;;16.00;60.10;;;;;;5060281;28;20104;-65
2023/01/14 01:07:49;;;;;;;1.75;1.40;;;16.00;60.10;;;;;;5060277;28;20029;-65
2023/01/14 01:10:15;;;;;;;2.08;1.70;;;16.10;60.20;;;;;;5062393;28;20034;-66
2023/01/14 01:12:41;;;;;;;3.03;1.92;;;16.20;60.30;;;;;;5064116;28;20033;-65
2023/01/14 01:15:07;;;;;;;3.13;1.38;;;16.30;60.30;;;;;;5064200;28;20415;-65
2023/01/14 01:17:33;;;;;;;1.70;1.27;;;16.30;60.10;;;;;;5064168;28;20028;-65
2023/01/14 01:19:59;;;;;;;3.13;1.83;;;16.40;60.60;;;;;;5062898;28;20025;-64
2023/01/14 01:22:24;;;;;;;2.13;1.48;;;16.50;59.80;;;;;;5064148;28;20313;-65
2023/01/14 01:24:53;;;;;;;2.63;1.70;;;16.50;59.60;;;;;;5064066;28;20067;-65
2023/01/14 01:27:19;;;;;;;2.10;1.50;;;16.50;59.50;;;;;;5063956;28;20070;-65
2023/01/14 01:29:45;;;;;;;2.42;1.75;;;16.50;59.40;;;;;;5063817;28;20279;-66
2023/01/14 01:32:11;;;;;;;2.55;1.63;;;16.50;59.40;;;;;;5063950;28;20503;-65
2023/01/14 01:34:36;;;;;;;3.03;1.50;;;16.50;59.40;;;;;;5063839;28;20220;-65
2023/01/14 01:37:02;;;;;;;3.65;1.55;;;16.50;59.40;;;;;;5063816;28;20100;-65
2023/01/14 01:39:28;;;;;;;2.17;1.55;;;16.40;59.40;;;;;;5063765;28;20027;-65
2023/01/14 01:41:54;;;;;;;2.97;1.83;;;16.40;59.50;;;;;;5063785;28;20021;-65
2023/01/14 01:44:20;;;;;;;2.47;1.80;;;16.30;59.50;;;;;;5063698;28;20048;-65
2023/01/14 01:46:45;;;;;;;2.15;1.67;;;16.30;59.50;;;;;;5063645;28;20113;-65
2023/01/14 01:49:13;;;;;;;2.13;1.52;;;16.20;59.60;;;;;;5063483;28;20036;-65
2023/01/14 01:51:47;;;;;;;2.38;1.50;;;16.20;59.70;;;;;;5063595;28;20033;-66
2023/01/14 01:54:14;;;;;;;3.05;1.60;;;16.20;59.70;;;;;;5063503;28;20029;-65
2023/01/14 01:56:42;;;;;;;3.17;1.85;;;16.20;59.80;;;;;;5063403;28;20013;-64
2023/01/14 01:59:10;;;;;;;2.70;1.58;;;16.10;59.80;;;;;;5063477;28;20347;-65
2023/01/14 02:01:38;;;;;;;2.53;1.77;;;16.10;59.90;;;;;;5063397;28;20267;-65
2023/01/14 02:04:05;;;;;;;2.35;1.90;;;16.10;60.00;;;;;;5063360;28;20021;-64
2023/01/14 02:06:31;;;;;;;2.08;1.60;;;16.10;60.00;;;;;;5063285;28;20028;-66
2023/01/14 02:08:57;;;;;;;2.65;1.85;;;16.10;60.10;;;;;;5063235;28;20033;-65
2023/01/14 02:11:47;;;;;;;1.50;1.35;;;16.10;60.10;;;;;;5063173;28;20043;-65
2023/01/14 02:14:34;;;;;;;1.70;1.27;;;16.10;60.10;;;;;;5063428;28;20029;-65
2023/01/14 02:17:12;;;;;;;2.13;1.52;;;16.10;60.00;;;;;;5063156;28;20084;-65
2023/01/14 02:19:51;;;;;;;1.50;1.40;;;16.10;60.10;;;;;;5063076;28;20037;-65
2023/01/14 02:22:45;;;;;;;1.83;1.70;;;16.10;60.00;;;;;;5063000;28;20367;-65
2023/01/14 02:25:23;;;;;;;2.63;1.70;;;16.10;60.10;;;;;;5063195;28;20025;-65
2023/01/14 02:28:13;;;;;;;1.73;1.50;;;16.00;60.00;;;;;;5063053;28;20074;-65
2023/01/14 02:31:06;;;;;;;1.63;1.52;;;16.00;60.10;;;;;;5054586;28;20052;-65
2023/01/14 02:33:38;;;;;;;2.40;1.60;;;16.10;60.30;;;;;;5062777;28;20120;-65
2023/01/14 02:36:40;;;;;;;2.25;1.50;;;16.20;60.30;;;;;;5062736;28;20024;-65
2023/01/14 02:39:18;;;;;;;2.00;1.52;;;16.30;60.20;;;;;;5061531;28;20021;-64
2023/01/14 02:45:14;;;;;;;2.10;1.50;;;16.50;59.80;;;;;;5056911;28;20443;-65
2023/01/14 02:47:42;;;;;;;2.55;1.80;;;16.50;59.60;;;;;;5062547;28;20017;-64
2023/01/14 02:50:10;;;;;;;2.50;1.77;;;16.50;59.40;;;;;;5062591;28;20028;-65
2023/01/14 02:52:36;;;;;;;2.50;1.48;;;16.50;59.40;;;;;;5062403;28;20355;-64
2023/01/14 02:55:02;;;;;;;1.92;1.63;;;16.50;60.00;;;;;;5062371;28;20017;-64
2023/01/14 02:57:56;;;;;;;2.05;1.33;;;16.40;59.30;;;;;;5062380;28;20333;-65
2023/01/14 03:00:32;;;;;;;2.13;1.20;;;16.40;59.30;;;;;;5062306;28;20251;-65
2023/01/14 03:03:19;;;;;;;1.48;1.38;;;16.30;59.50;;;;;;5062335;28;20530;-66
2023/01/14 03:05:48;;;;;;;2.38;1.60;;;16.20;59.50;;;;;;5062249;28;20240;-66
2023/01/14 03:08:28;;;;;;;;;;;16.20;59.60;;;;;;5062672;28;20028;-65
2023/01/14 03:11:03;;;;;;;2.13;1.63;;;16.20;59.70;;;;;;5062199;28;20200;-66
2023/01/14 03:13:51;;;;;;;2.10;1.50;;;16.20;59.70;;;;;;5062110;28;20043;-65
2023/01/14 03:16:29;;;;;;;1.98;1.42;;;16.10;59.70;;;;;;5062194;28;20100;-65
2023/01/14 03:19:17;;;;;;;1.65;1.40;;;16.10;59.80;;;;;;5062087;28;20484;-65
2023/01/14 03:21:50;;;;;;;2.00;1.58;;;16.00;59.90;;;;;;5061785;28;20270;-66
2023/01/14 03:24:44;;;;;;;2.15;1.88;;;16.00;59.90;;;;;;5061851;28;20017;-64
2023/01/14 03:27:18;;;;;;;1.40;1.30;;;16.00;59.90;;;;;;5061626;28;20032;-64
2023/01/14 03:29:48;;;;;;;1.92;1.70;;;15.90;59.90;;;;;;5061691;28;20079;-65
2023/01/14 03:32:36;;;;;;;2.53;1.70;;;15.90;60.10;;;;;;5061098;28;20116;-66
2023/01/14 03:35:19;;;;;;;2.08;1.70;;;15.90;60.20;;;;;;5061730;28;20028;-66
2023/01/14 03:37:57;;;;;;;2.38;1.80;;;15.90;60.20;;;;;;5061663;28;20097;-65
2023/01/14 03:40:26;;;;;;;2.37;1.70;;;15.90;60.30;;;;;;5061537;28;20133;-65
2023/01/14 03:43:00;;;;;;;;;;;15.90;60.30;;;;;;5061482;28;20250;-65
2023/01/14 03:45:37;;;;;;;2.95;1.70;;;15.90;60.40;;;;;;5061373;28;19907;-65
2023/01/14 03:48:05;;;;;;;2.45;1.75;;;15.90;60.30;;;;;;5061353;28;20032;-65
2023/01/14 03:51:00;;;;;;;1.63;1.40;;;16.00;60.20;;;;;;5061252;28;20318;-65
2023/01/14 03:53:33;;;;;;;1.83;1.65;;;16.10;60.40;;;;;;5047972;28;20051;-65
2023/01/14 03:56:18;;;;;;;1.73;1.63;;;16.10;60.30;;;;;;5061214;28;20032;-65
2023/01/14 03:58:57;;;;;;;1.70;1.48;;;16.20;60.20;;;;;;5061139;28;20074;-66
2023/01/14 04:01:38;;;;;;;2.10;1.50;;;16.30;60.00;;;;;;5061323;28;20013;-65
2023/01/14 04:04:05;;;;;;;2.05;1.42;;;16.40;59.80;;;;;;5061003;28;20028;-65
2023/01/14 04:06:31;;;;;;;1.92;1.70;;;16.40;59.70;;;;;;5060929;28;20048;-65
2023/01/14 04:08:57;;;;;;;3.13;1.80;;;16.40;59.50;;;;;;5060923;28;20043;-65
2023/01/14 04:11:23;;;;;;;2.67;1.73;;;16.40;59.40;;;;;;5060884;28;20066;-65
2023/01/14 04:16:32;;;;;;;2.45;1.85;;;16.40;59.30;;;;;;5060704;28;20322;-65
2023/01/14 04:18:58;;;;;;;1.98;1.60;;;16.30;59.40;;;;;;5060724;28;20033;-65
2023/01/14 04:21:24;;;;;;;1.67;1.48;;;16.30;59.50;;;;;;5060651;28;20025;-65
2023/01/14 04:23:50;;;;;;;1.83;1.55;;;16.20;59.50;;;;;;5060673;28;20271;-65
2023/01/14 04:26:16;;;;;;;2.20;1.73;;;16.20;59.50;;;;;;5060599;28;20296;-65
2023/01/14 04:28:42;;;;;;;1.85;1.65;;;16.20;59.70;;;;;;5060524;28;20036;-65
2023/01/14 04:31:07;;;;;;;2.08;1.55;;;16.10;59.80;;;;;;5060439;28;20375;-66
2023/01/14 04:33:33;;;;;;;1.90;1.50;;;16.10;59.90;;;;;;5060479;28;20047;-66
2023/01/14 04:35:59;;;;;;;1.83;1.50;;;16.00;59.80;;;;;;5060495;28;20066;-66
2023/01/14 04:38:25;;;;;;;1.67;1.58;;;16.00;59.90;;;;;;5060544;28;20579;-65
2023/01/14 04:40:57;;;;;;;3.08;1.98;;;16.00;59.90;;;;;;5060467;28;20309;-65
2023/01/14 04:43:23;;;;;;;2.75;1.88;;;15.90;60.00;;;;;;5075681;28;20021;-65
2023/01/14 04:45:53;;;;;;;2.60;2.03;;;15.90;60.00;;;;;;5060336;28;20033;-65
2023/01/14 04:48:20;;;;;;;1.50;1.40;;;15.90;60.10;;;;;;5060289;28;20033;-66
2023/01/14 04:50:47;;;;;;;1.75;1.65;;;15.80;60.00;;;;;;5060302;28;20083;-65
2023/01/14 04:53:20;;;;;;;2.97;1.65;;;15.90;60.10;;;;;;5060296;28;20359;-65
2023/01/14 04:55:47;;;;;;;2.70;1.85;;;15.80;60.20;;;;;;5060323;28;20028;-65
2023/01/14 04:58:17;;;;;;;2.03;1.60;;;15.80;60.20;;;;;;5060288;28;20028;-65
2023/01/14 05:00:46;;;;;;;1.60;1.50;;;15.80;60.30;;;;;;5060285;28;20016;-66
2023/01/14 05:03:14;;;;;;;1.60;1.50;;;15.80;60.30;;;;;;5060245;28;20053;-66
2023/01/14 05:05:41;;;;;;;2.00;1.87;;;15.90;60.50;;;;;;5060244;28;20086;-66
2023/01/14 05:08:10;;;;;;;1.48;1.33;;;16.00;60.50;;;;;;5060118;28;20261;-66
2023/01/14 05:10:37;;;;;;;1.48;1.35;;;16.10;60.50;;;;;;5060229;28;20033;-66
2023/01/14 05:13:05;;;;;;;2.00;1.45;;;16.20;60.30;;;;;;5060118;28;20047;-66
2023/01/14 05:15:34;;;;;;;2.17;1.67;;;16.30;60.10;;;;;;5060149;28;20509;-66
2023/01/14 05:18:00;;;;;;;1.45;1.30;;;16.30;59.80;;;;;;5060118;28;20236;-65
2023/01/14 05:20:26;;;;;;;1.70;1.30;;;16.40;59.70;;;;;;5060188;28;20021;-65
2023/01/14 05:23:16;;;;;;;2.03;1.80;;;16.40;59.60;;;;;;5060106;28;20028;-65
2023/01/14 05:25:42;;;;;;;1.90;1.55;;;16.40;59.60;;;;;;5060073;28;20066;-66
2023/01/14 05:28:14;;;;;;;2.17;1.77;;;16.40;59.50;;;;;;5060017;28;20040;-65
2023/01/14 05:30:40;;;;;;;1.58;1.48;;;16.40;59.50;;;;;;5059765;28;20091;-66
2023/01/14 05:33:05;;;;;;;1.58;1.40;;;16.30;59.40;;;;;;5059854;28;20028;-65
2023/01/14 05:35:32;;;;;;;2.30;1.52;;;16.30;59.50;;;;;;5059903;28;20578;-65
2023/01/14 05:37:58;;;;;;;5.15;2.45;;;16.20;59.60;;;;;;5059924;28;20098;-65
2023/01/14 05:40:24;;;;;;;1.50;1.38;;;16.20;59.60;;;;;;5059869;28;20247;-64
2023/01/14 05:45:49;;;;;;;2.05;1.80;;;16.10;59.80;;;;;;5059857;28;20059;-65
2023/01/14 05:48:25;;;;;;;3.13;1.70;;;16.00;59.80;;;;;;5059840;28;20017;-65
2023/01/14 05:50:53;;;;;;;1.42;1.30;;;16.00;59.90;;;;;;5059751;28;20017;-64
2023/01/14 05:53:20;;;;;;;2.00;1.42;;;16.00;60.00;;;;;;5059809;28;20359;-64
2023/01/14 05:55:46;;;;;;;1.70;1.48;;;16.00;60.00;;;;;;5061026;28;20013;-66
2023/01/14 05:58:12;;;;;;;3.17;1.90;;;15.90;60.00;;;;;;5063434;28;20025;-65
2023/01/14 06:06:21;;;;;;;1.85;1.65;;;15.80;60.00;;;;;;5063319;28;20217;-65
2023/01/14 06:08:47;;;;;;;2.67;1.33;;;15.80;60.30;;;;;;5063430;28;20017;-66
2023/01/14 06:11:13;;;;;;;1.52;1.35;;;15.80;60.20;;;;;;5063419;28;20036;-65
2023/01/14 06:13:39;;;;;;;1.85;1.52;;;15.80;60.30;;;;;;5063349;28;20088;-65
2023/01/14 06:16:07;;;;;;;2.08;1.83;;;15.80;60.30;;;;;;5063289;28;20017;-66
2023/01/14 06:18:38;;;;;;;1.42;1.33;;;15.90;60.40;;;;;;5063175;28;20120;-66
2023/01/14 06:21:07;;;;;;;1.50;1.40;;;16.00;60.40;;;;;;5063347;28;20033;-65
2023/01/14 06:23:33;;;;;;;1.52;1.40;;;16.00;60.30;;;;;;5063077;28;20029;-66
2023/01/14 06:26:00;;;;;;;1.13;1.02;;;16.20;60.30;;;;;;5063039;28;20332;-66
2023/01/14 06:28:28;;;;;;;2.63;1.45;;;16.20;60.10;;;;;;5062941;28;20208;-66
2023/01/14 06:30:54;;;;;;;1.35;1.25;;;16.40;59.90;;;;;;5062848;28;20052;-65
2023/01/14 06:33:22;;;;;;;3.45;1.73;;;16.30;59.70;;;;;;5062935;28;20062;-65
2023/01/14 06:35:49;;;;;;;1.92;1.67;;;16.40;59.60;;;;;;5062864;28;20032;-65
2023/01/14 06:38:15;;;;;;;1.98;1.60;;;16.40;59.60;;;;;;5062807;28;20080;-65
2023/01/14 06:40:44;;;;;;;1.25;1.15;;;16.50;59.50;;;;;;5062793;28;20296;-66
2023/01/14 06:43:10;;;;;;;1.33;1.17;;;16.40;59.40;;;;;;5062759;28;20029;-65
2023/01/14 06:45:36;;;;;;;1.45;1.35;;;16.40;59.30;;;;;;5062783;28;20313;-65
2023/01/14 06:48:02;;;;;;;4.43;1.35;;;16.40;59.30;;;;;;5062729;28;20032;-65
2023/01/14 06:50:28;;;;;;;1.60;1.30;;;16.30;59.40;;;;;;5062651;28;20053;-67
2023/01/14 06:52:59;;;;;;;2.15;1.48;;;16.30;59.50;;;;;;5062499;28;20028;-65
2023/01/14 06:55:25;;;;;;;1.92;1.45;;;16.20;59.50;;;;;;5062654;28;20021;-65
2023/01/14 06:57:50;;;;;;;2.22;1.98;;;16.20;59.60;;;;;;5062662;28;20021;-65
2023/01/14 07:00:17;;;;;;;2.13;1.60;;;16.10;59.60;;;;;;5062513;28;20205;-66
2023/01/14 07:02:42;;;;;;;1.52;1.27;;;16.10;59.70;;;;;;5062333;28;20019;-67
2023/01/14 07:05:08;;;;;;;1.38;1.27;;;16.10;59.80;;;;;;5077788;28;20074;-65
2023/01/14 07:07:34;;;;;;;1.73;1.48;;;16.00;59.70;;;;;;5062271;28;20025;-65
2023/01/14 07:10:00;;;;;;;1.98;1.50;;;16.00;60.40;;;;;;5062269;28;20055;-65
2023/01/14 07:12:26;;;;;;;1.67;1.40;;;16.00;59.90;;;;;;5062209;28;20024;-65
2023/01/14 07:14:51;;;;;;;1.55;1.35;;;16.00;59.90;;;;;;5062107;28;20062;-65
2023/01/14 07:17:17;;;;;;;1.88;1.33;;;15.90;59.90;;;;;;5062196;28;20025;-65
2023/01/14 07:19:43;;;;;;;1.75;1.33;;;15.90;60.00;;;;;;5062105;28;20017;-65
2023/01/14 07:22:09;;;;;;;1.55;1.40;;;15.90;59.90;;;;;;5061953;28;20033;-65
2023/01/14 07:24:37;;;;;;;1.75;1.35;;;15.90;59.90;;;;;;5061977;28;20021;-65
2023/01/14 07:27:04;;;;;;;1.67;1.27;;;15.90;59.90;;;;;;5061829;28;20012;-67
2023/01/14 07:29:30;;;;;;;1.65;1.35;;;15.90;60.00;;;;;;5061642;28;20032;-65
2023/01/14 07:31:56;;;;;;;1.45;1.35;;;15.80;60.00;;;;;;5061868;28;20063;-66
2023/01/14 07:34:22;;;;;;;1.60;1.40;;;15.90;60.00;;;;;;5061659;28;20317;-65
2023/01/14 07:36:48;;;;;;;1.70;1.42;;;15.90;60.10;;;;;;5061725;28;20329;-67
2023/01/14 07:39:13;;;;;;;1.67;1.58;;;16.00;60.00;;;;;;5061592;28;20028;-65
2023/01/14 07:41:39;;;;;;;1.50;1.35;;;16.10;59.90;;;;;;5061514;28;20296;-66
2023/01/14 07:44:05;;;;;;;2.03;1.45;;;16.20;59.80;;;;;;5061526;28;20028;-66
2023/01/14 07:46:32;;;;;;;2.20;1.50;;;16.30;59.60;;;;;;5061466;28;20291;-65
2023/01/14 07:48:58;;;;;;;1.45;1.27;;;16.40;59.50;;;;;;5061417;28;20035;-65
2023/01/14 07:51:24;;;;;;;2.22;1.67;;;16.40;59.30;;;;;;5061357;28;20029;-65
2023/01/14 07:53:50;;;;;;;2.40;1.70;;;16.40;59.10;;;;;;5061229;28;20055;-65
2023/01/14 07:56:17;;;;;;;1.67;1.40;;;16.50;59.00;;;;;;5061185;28;20040;-65
2023/01/14 07:58:42;;;;;;;1.35;1.23;;;16.50;59.00;;;;;;5059838;28;20205;-65
2023/01/14 08:01:09;;;;;;;2.38;1.83;;;16.50;58.90;;;;;;5059778;28;20070;-66
2023/01/14 08:03:36;;;;;;;1.67;1.25;;;16.50;58.70;;;;;;5061138;28;20029;-65
2023/01/14 08:06:04;;;;;;;2.33;1.50;;;16.40;58.80;;;;;;5061021;28;20039;-66
2023/01/14 08:08:30;;;;;;;1.75;1.48;;;16.40;58.90;;;;;;5060978;28;20043;-66
2023/01/14 08:11:00;;;;;;;1.58;1.40;;;16.40;59.00;;;;;;5060963;28;20028;-65
2023/01/14 08:13:27;;;;;;;1.40;1.27;;;16.30;59.10;;;;;;5060965;28;20347;-65
2023/01/14 08:15:58;;;;;;;1.58;1.10;;;16.30;59.20;;;;;;5060922;28;20080;-65
2023/01/14 08:18:24;;;;;;;1.88;1.42;;;16.30;59.20;;;;;;5060478;28;20085;-65
2023/01/14 08:21:01;;;;;;;1.30;1.10;;;16.20;59.30;;;;;;5060812;28;20032;-65
2023/01/14 08:23:27;;;;;;;2.00;1.63;;;16.20;59.30;;;;;;5060807;28;20109;-65
2023/01/14 08:25:53;;;;;;;1.70;1.50;;;16.20;59.40;;;;;;5060724;28;20321;-65
2023/01/14 08:28:19;;;;;;;2.05;1.30;;;16.20;59.50;;;;;;5060900;28;20056;-65
2023/01/14 08:30:45;;;;;;;1.50;1.40;;;16.20;59.40;;;;;;5060512;28;20104;-65
2023/01/14 08:33:11;;;;;;;1.70;1.50;;;16.20;59.40;;;;;;5060525;28;20036;-65
2023/01/14 08:35:40;;;;;;;1.45;1.35;;;16.20;59.40;;;;;;5060640;28;20039;-66
2023/01/14 08:38:07;;;;;;;1.55;1.35;;;16.20;59.50;;;;;;5060505;28;20074;-66
2023/01/14 08:40:33;;;;;;;1.52;1.20;;;16.20;59.40;;;;;;5060496;28;20017;-65
2023/01/14 08:42:59;;;;;;;1.15;1.05;;;16.20;59.50;;;;;;5060456;28;20021;-65
2023/01/14 08:45:25;;;;;;;1.48;1.33;;;16.20;59.50;;;;;;5060828;28;20355;-65
2023/01/14 08:47:51;;;;;;;1.80;1.10;;;16.20;59.50;;;;;;5060397;28;20036;-65
2023/01/14 08:50:17;;;;;;;1.27;1.10;;;16.20;59.40;;;;;;5060455;28;20052;-65
2023/01/14 08:52:43;;;;;;;1.25;1.13;;;16.20;59.30;;;;;;5060223;28;20083;-65
2023/01/14 08:55:09;;;;;;;1.65;1.45;;;16.20;59.30;;;;;;5060441;28;20084;-65
2023/01/14 08:57:34;;;;;;;2.40;1.83;;;16.20;59.30;;;;;;5060419;28;20021;-65
2023/01/14 09:00:00;;;;;;;2.63;1.65;;;16.20;59.30;;;;;;5060427;28;20070;-65
2023/01/14 09:02:26;;;;;;;1.38;1.27;;;16.20;59.20;;;;;;5060445;28;20033;-66
2023/01/14 09:04:52;;;;;;;1.90;1.52;;;16.20;59.20;;;;;;5060343;28;20036;-67
2023/01/14 09:18:15;;;;;;;1.65;1.27;;;16.30;59.40;;;;;;5060241;28;20043;-65
2023/01/14 09:20:42;;;;;;;1.90;1.50;;;16.40;59.50;;;;;;5060231;28;20036;-64
2023/01/14 09:23:09;;;;;;;1.05;0.95;;;16.40;59.40;;;;;;5060185;28;20092;-65
2023/01/14 09:25:36;;;;;;;1.60;1.30;;;16.50;59.30;;;;;;5060173;28;20021;-65
2023/01/14 09:28:02;;;;;;;1.70;1.30;;;16.60;59.10;;;;;;5060104;28;20057;-65
2023/01/14 09:30:28;;;;;;;1.50;1.30;;;16.70;58.90;;;;;;5060739;28;20051;-64
2023/01/14 09:32:54;;;;;;;1.27;1.17;;;16.80;58.70;;;;;;5063901;28;20328;-64
2023/01/14 09:35:20;;;;;;;1.55;1.25;;;16.80;58.40;;;;;;5063909;28;20024;-65
2023/01/14 09:37:45;;;;;;;1.15;1.00;;;16.80;58.30;;;;;;5063895;28;20054;-64
2023/01/14 09:40:12;;;;;;;2.35;1.45;;;16.80;58.30;;;;;;5063880;28;20186;-64
2023/01/14 09:42:47;;;;;;;1.67;1.40;;;16.80;58.30;;;;;;5063881;28;20025;-64
2023/01/14 09:45:24;;;;;;;1.58;1.27;;;16.70;58.30;;;;;;5063846;28;20029;-67
2023/01/14 09:47:50;;;;;;;1.60;1.50;;;16.70;58.40;;;;;;5063815;28;20024;-65
2023/01/14 09:50:21;;;;;;;1.70;1.50;;;16.70;58.50;;;;;;5063729;28;20213;-65
2023/01/14 09:53:16;;;;;;;1.42;1.23;;;16.60;58.50;;;;;;5063652;28;20025;-65
2023/01/14 09:55:55;;;;;;;1.25;1.15;;;16.60;58.60;;;;;;5063736;28;20017;-66
2023/01/14 09:58:39;;;;;;;1.38;1.13;;;16.60;58.60;;;;;;5063840;28;20333;-66
2023/01/14 10:01:27;;;;;;;1.30;1.20;;;16.60;58.60;;;;;;5063642;28;20017;-66
2023/01/14 10:03:53;;;;;;;1.40;1.23;;;16.50;58.50;;;;;;5055383;28;20041;-64
2023/01/14 10:06:19;;;;;;;1.83;1.63;;;16.50;58.60;;;;;;5063457;28;20029;-65
2023/01/14 10:09:10;;;;;;;1.73;1.45;;;16.50;58.70;;;;;;5063402;28;20028;-64
2023/01/14 10:11:40;;;;;;;1.88;1.23;;;16.50;58.80;;;;;;5063350;28;20024;-65
2023/01/14 10:14:27;;;;;;;1.20;1.00;;;16.40;58.80;;;;;;5063215;28;20025;-64
2023/01/14 10:17:01;;;;;;;1.33;1.23;;;16.40;58.70;;;;;;5063207;28;20021;-65
2023/01/14 10:19:40;;;;;;;2.13;1.70;;;16.40;58.80;;;;;;5063133;28;20205;-66
2023/01/14 10:22:38;;;;;;;1.73;1.35;;;16.50;58.80;;;;;;5063175;28;20020;-65
2023/01/14 10:25:13;;;;;;;1.08;1.00;;;16.40;58.70;;;;;;5057439;28;20025;-65
2023/01/14 10:27:40;;;;;;;1.73;1.30;;;16.40;58.80;;;;;;5063120;28;20025;-64
2023/01/14 10:30:17;;;;;;;1.20;1.10;;;16.40;58.80;;;;;;5062867;28;20045;-64
2023/01/14 10:32:44;;;;;;;1.40;1.15;;;16.40;58.80;;;;;;5063018;28;20324;-64
2023/01/14 10:35:14;;;;;;;1.58;1.30;;;16.40;58.80;;;;;;5062827;28;20228;-65
2023/01/14 10:37:40;;;;;;;1.88;1.63;;;16.40;58.80;;;;;;5062832;28;20021;-65
2023/01/14 10:40:16;;;;;;;1.55;1.20;;;16.40;58.80;;;;;;5062928;28;20013;-65
2023/01/14 10:42:42;;;;;;;1.65;1.20;;;16.50;58.80;;;;;;5062569;28;20310;-65
2023/01/14 10:45:12;;;;;;;1.13;1.00;;;16.70;58.70;;;;;;5062831;28;20033;-65
2023/01/14 10:47:39;;;;;;;1.85;1.20;;;16.80;58.40;;;;;;5062631;28;20013;-65
2023/01/14 10:50:21;;;;;;;1.83;1.30;;;16.90;58.00;;;;;;5062574;28;20028;-64
2023/01/14 10:52:49;;;;;;;1.52;1.20;;;17.00;57.70;;;;;;5062485;28;20021;-64
2023/01/14 10:55:25;;;;;;;1.23;1.02;;;17.10;57.50;;;;;;5062580;28;20027;-64
2023/01/14 10:58:12;;;;;;;1.67;1.15;;;17.10;57.40;;;;;;5062502;28;20071;-64
2023/01/14 11:00:47;;;;;;;1.40;1.30;;;17.10;57.30;;;;;;5062524;28;20035;-65
2023/01/14 11:03:36;;;;;;;1.17;1.08;;;17.10;57.40;;;;;;5062501;28;20367;-66
2023/01/14 11:06:12;;;;;;;1.15;1.05;;;17.00;57.30;;;;;;5062374;28;20036;-65
2023/01/14 11:08:47;;;;;;;1.20;1.10;;;17.00;57.30;;;;;;5062258;28;20028;-64
2023/01/14 11:11:18;;;;;;;1.95;1.45;;;16.90;57.50;;;;;;5062252;28;20321;-65
2023/01/14 11:13:48;;;;;;;2.92;1.20;;;16.90;57.60;;;;;;5062205;28;20044;-66
2023/01/14 11:16:34;;;;;;;1.40;1.00;;;16.90;57.50;;;;;;5062071;28;20020;-65
2023/01/14 11:19:16;;;;;;;1.25;1.15;;;16.90;57.60;;;;;;5062175;28;20363;-65
2023/01/14 11:21:47;;;;;;;2.72;1.90;;;16.80;57.60;;;;;;5062044;28;20017;-66
2023/01/14 11:24:29;;;;;;;1.48;1.38;;;16.80;57.70;;;;;;5061961;28;20024;-65
2023/01/14 11:27:02;;;;;;;1.33;1.23;;;16.80;57.70;;;;;;5061816;28;20059;-65
2023/01/14 11:29:30;;;;;;;1.45;1.30;;;16.80;57.80;;;;;;5061757;28;20017;-65
2023/01/14 11:32:08;;;;;;;;;;;16.80;57.90;;;;;;5062344;28;20062;-65
2023/01/14 11:34:52;;;;;;;1.25;1.15;;;16.80;57.90;;;;;;5061692;28;19930;-65
2023/01/14 11:37:24;;;;;;;1.23;1.13;;;16.80;57.90;;;;;;5061698;28;20020;-65
2023/01/14 11:39:58;;;;;;;1.15;1.08;;;16.80;57.80;;;;;;5061630;28;20043;-65
2023/01/14 11:42:27;;;;;;;1.20;1.10;;;16.80;57.80;;;;;;5061602;28;20029;-65
2023/01/14 11:45:10;;;;;;;1.20;1.10;;;16.80;57.80;;;;;;5061440;28;20024;-67
2023/01/14 11:47:53;;;;;;;1.55;1.30;;;16.80;57.80;;;;;;5061556;28;20055;-65
2023/01/14 11:50:22;;;;;;;1.48;1.20;;;16.80;58.00;;;;;;5061455;28;20025;-65
2023/01/14 11:53:02;;;;;;;1.50;1.10;;;16.80;57.90;;;;;;5060701;28;20027;-65
2023/01/14 11:55:31;;;;;;;1.17;1.08;;;16.80;57.90;;;;;;5061338;28;20040;-65
2023/01/14 11:58:01;;;;;;;;;;;16.80;57.90;;;;;;5077138;28;20037;-65
2023/01/14 12:00:28;;;;;;;1.27;1.17;;;16.80;57.90;;;;;;5061353;28;19913;-65
2023/01/14 12:02:58;;;;;;;1.00;0.90;;;16.80;57.80;;;;;;5061193;28;20024;-65
2023/01/14 12:05:25;;;;;;;0.93;0.90;;;16.80;57.90;;;;;;5059908;28;20221;-66
2023/01/14 12:07:54;;;;;;;1.63;1.30;;;16.80;57.90;;;;;;5061086;28;20347;-66
2023/01/14 12:10:25;;;;;;;1.65;1.33;;;16.80;57.90;;;;;;5061040;28;20322;-66
2023/01/14 12:19:19;;;;;;;1.30;1.20;;;16.80;57.90;;;;;;5060968;28;20024;-65
2023/01/14 12:21:55;;;;;;;1.23;1.10;;;16.80;58.00;;;;;;5060903;28;20088;-65
2023/01/14 12:24:28;;;;;;;1.40;1.25;;;16.80;58.00;;;;;;5060857;28;20020;-65
2023/01/14 12:26:56;;;;;;;1.23;1.13;;;16.80;57.90;;;;;;5060767;28;20032;-64
2023/01/14 12:29:44;;;;;;;1.95;1.58;;;16.70;57.90;;;;;;5060565;28;20135;-65
2023/01/14 12:32:20;;;;;;;1.02;0.93;;;16.70;57.90;;;;;;5060634;28;20201;-65
2023/01/14 12:34:50;;;;;;;1.30;1.00;;;16.70;57.80;;;;;;5060630;28;20033;-65
2023/01/14 12:37:24;;;;;;;1.27;1.17;;;16.70;57.80;;;;;;5060930;28;20029;-65
2023/01/14 12:45:41;;;;;;;1.10;1.00;;;16.80;57.90;;;;;;5060520;28;20139;-65
2023/01/14 12:48:08;;;;;;;1.45;1.33;;;16.80;57.90;;;;;;5060545;28;20025;-65
2023/01/14 12:50:37;;;;;;;1.10;1.00;;;16.80;57.90;;;;;;5060502;28;20066;-65
2023/01/14 12:53:03;;;;;;;1.20;1.10;;;16.80;57.70;;;;;;5060379;28;20052;-65
2023/01/14 12:55:39;;;;;;;1.23;1.08;;;16.90;57.60;;;;;;5060432;28;20056;-65
2023/01/14 12:58:14;;;;;;;1.20;1.10;;;17.10;57.50;;;;;;5060431;28;20028;-65
2023/01/14 13:00:41;;;;;;;1.42;1.08;;;17.20;57.30;;;;;;5060380;28;20063;-66
2023/01/14 13:03:17;;;;;;;0.90;0.88;;;17.30;57.00;;;;;;5060384;28;20025;-65
2023/01/14 13:05:44;;;;;;;1.98;1.75;;;17.40;57.40;;;;;;5063359;28;20028;-65
2023/01/14 13:08:27;;;;;;;1.15;1.05;;;17.40;56.60;;;;;;5064404;28;20021;-64
2023/01/14 13:11:06;;;;;;;1.13;1.02;;;17.50;56.50;;;;;;5064459;28;20232;-65
2023/01/14 13:13:34;;;;;;;1.15;1.05;;;17.40;56.40;;;;;;5064293;28;20108;-65
2023/01/14 13:16:03;;;;;;;0.80;0.80;;;17.40;56.50;;;;;;5064337;28;20017;-66
2023/01/14 13:18:34;;;;;;;1.30;1.20;;;17.40;56.50;;;;;;5064381;28;20324;-65
2023/01/14 13:21:08;;;;;;;1.25;1.08;;;17.40;56.50;;;;;;5064268;28;20028;-65
2023/01/14 13:23:37;;;;;;;1.90;1.27;;;17.40;56.40;;;;;;5064247;28;20249;-65
2023/01/14 13:26:19;;;;;;;1.08;0.90;;;17.40;56.40;;;;;;5064206;28;20028;-65
2023/01/14 13:29:19;;;;;;;2.30;1.23;;;17.40;56.50;;;;;;5064207;28;20431;-65
2023/01/14 13:31:45;;;;;;;1.00;0.90;;;17.40;56.60;;;;;;5064127;28;20037;-64
2023/01/14 13:34:25;;;;;;;1.10;1.00;;;17.40;56.60;;;;;;5063935;28;20218;-64
2023/01/14 13:37:00;;;;;;;1.27;1.10;;;17.30;56.60;;;;;;5063966;28;20186;-64
2023/01/14 13:39:28;;;;;;;1.25;1.08;;;17.30;56.60;;;;;;5063974;28;20024;-64
2023/01/14 13:41:57;;;;;;;1.60;1.33;;;17.40;56.70;;;;;;5064062;28;20025;-65
2023/01/14 13:44:33;;;;;;;1.10;1.00;;;17.30;56.60;;;;;;5064024;28;20552;-64